Time;durP1;ratioP1;P1;durP2;ratioP2;P2;SDS_P1;SDS_P2;PMS_P1;PMS_P2;Temp;Humidity;BMP_temperature;BMP_pressure;BME280_temperature;BME280_humidity;BME280_pressure;Samples;Min_cycle;Max_cycle;Signal;HPM_P1;HPM_P2
2022/10/31 00:00:20;;;;;;;51.67;18.00;;;;;;;15.25;60.02;100355.84;4471710;32;20120;-94
2022/10/31 00:02:45;;;;;;;60.35;16.70;;;;;;;15.13;60.00;100348.44;4471886;32;20424;-94
2022/10/31 00:05:10;;;;;;;43.00;18.90;;;;;;;15.23;60.01;100355.03;4471809;32;20152;-93
2022/10/31 00:07:36;;;;;;;43.45;18.42;;;;;;;15.20;60.01;100362.19;4471392;32;23117;-94
2022/10/31 00:10:01;;;;;;;61.10;18.83;;;;;;;15.19;60.01;100363.97;4472828;32;27107;-93
2022/10/31 00:12:26;;;;;;;46.05;19.20;;;;;;;15.12;60.01;100361.63;4474223;32;20092;-93
2022/10/31 00:14:52;;;;;;;44.97;18.33;;;;;;;15.02;60.01;100364.62;4475347;32;24630;-93
2022/10/31 00:17:17;;;;;;;48.00;16.20;;;;;;;14.97;60.00;100363.13;4473745;32;20212;-93
2022/10/31 00:19:43;;;;;;;38.88;17.25;;;;;;;15.09;60.00;100359.13;4473682;32;20511;-93
2022/10/31 00:22:08;;;;;;;39.42;15.95;;;;;;;15.04;60.00;100360.19;4473192;32;28502;-94
2022/10/31 00:24:33;;;;;;;26.10;13.82;;;;;;;15.10;60.01;100353.81;4473319;32;22756;-94
2022/10/31 00:26:59;;;;;;;27.95;14.25;;;;;;;15.20;60.01;100352.56;4473643;32;20155;-94
2022/10/31 00:29:24;;;;;;;28.83;12.63;;;;;;;15.24;60.01;100348.87;4473385;32;20198;-94
2022/10/31 00:31:49;;;;;;;25.33;12.80;;;;;;;15.20;60.01;100351.69;4472862;32;31456;-95
2022/10/31 00:34:15;;;;;;;24.83;12.18;;;;;;;15.21;60.01;100348.16;4473330;32;20302;-94
2022/10/31 00:36:40;;;;;;;28.95;11.85;;;;;;;15.21;60.01;100340.28;4473432;32;24661;-93
2022/10/31 00:39:06;;;;;;;22.27;12.02;;;;;;;14.99;60.00;100343.78;4473491;32;21309;-94
2022/10/31 00:41:31;;;;;;;21.02;11.30;;;;;;;15.00;59.99;100337.62;4473443;32;20190;-93
2022/10/31 00:43:56;;;;;;;24.67;11.95;;;;;;;14.90;60.00;100340.66;4472974;32;23833;-93
2022/10/31 00:46:22;;;;;;;23.70;11.80;;;;;;;14.82;59.99;100346.22;4473324;32;20947;-94
2022/10/31 00:48:47;;;;;;;26.75;12.02;;;;;;;14.82;59.99;100342.75;4473287;32;21082;-93
2022/10/31 00:51:12;;;;;;;29.85;12.90;;;;;;;14.69;59.98;100335.41;4473088;32;24831;-93
2022/10/31 00:53:38;;;;;;;24.80;12.55;;;;;;;14.77;59.99;100331.59;4472883;32;26909;-93
2022/10/31 00:56:04;;;;;;;31.02;12.35;;;;;;;14.82;59.99;100327.88;4473261;32;21065;-94
2022/10/31 00:58:29;;;;;;;22.90;11.75;;;;;;;14.94;60.00;100327.41;4473394;32;20134;-94
2022/10/31 01:00:54;;;;;;;23.00;12.05;;;;;;;14.94;60.00;100327.41;4473459;32;20134;-94
2022/10/31 01:03:28;;;;;;;24.67;12.48;;;;;;;14.86;59.99;100331.22;4473015;32;25763;-93
2022/10/31 01:06:04;;;;;;;29.17;12.15;;;;;;;14.92;60.00;100337.09;4473381;32;20223;-94
2022/10/31 01:08:29;;;;;;;29.90;12.75;;;;;;;14.89;59.99;100336.34;4473643;32;20112;-92
2022/10/31 01:11:22;;;;;;;34.40;12.15;;;;;;;14.90;60.00;100336.28;4473648;32;20091;-93
2022/10/31 01:13:47;;;;;;;28.42;13.95;;;;;;;15.03;60.00;100334.03;4484380;32;20137;-93
2022/10/31 01:16:15;;;;;;;23.50;12.65;;;;;;;14.89;59.99;100331.09;4473760;31;20112;-94
2022/10/31 01:18:40;;;;;;;30.83;14.27;;;;;;;14.86;59.99;100336.47;4473547;32;20180;-93
2022/10/31 01:21:10;;;;;;;29.52;14.07;;;;;;;14.84;59.99;100338.31;4472491;32;20146;-95
2022/10/31 01:23:36;;;;;;;27.87;13.82;;;;;;;14.77;59.99;100329.84;4473902;32;20093;-93
2022/10/31 01:26:08;;;;;;;33.92;14.57;;;;;;;14.88;59.99;100327.63;4473373;32;20161;-94
2022/10/31 01:28:35;;;;;;;32.88;15.02;;;;;;;14.83;59.99;100331.34;4486469;32;20064;-93
2022/10/31 01:31:02;;;;;;;30.85;14.50;;;;;;;14.83;59.99;100329.59;4473143;32;20865;-94
2022/10/31 01:33:27;;;;;;;35.20;14.30;;;;;;;14.90;60.00;100322.31;4473526;32;20445;-93
2022/10/31 01:35:52;;;;;;;35.50;15.55;;;;;;;14.84;59.99;100333.91;4473526;32;20182;-93
2022/10/31 01:38:18;;;;;;;35.45;15.63;;;;;;;14.84;59.99;100320.81;4479831;32;21548;-94
2022/10/31 01:40:43;;;;;;;39.05;16.17;;;;;;;14.87;60.00;100315.44;4473758;32;20124;-93
2022/10/31 01:43:13;;;;;;;31.85;14.70;;;;;;;14.94;59.99;100326.56;4473246;32;20116;-94
2022/10/31 01:45:38;;;;;;;35.15;15.93;;;;;;;15.01;59.99;100322.75;4473171;31;20157;-93
2022/10/31 01:48:04;;;;;;;31.90;15.10;;;;;;;14.87;60.00;100325.94;4472828;32;20100;-94
2022/10/31 01:50:36;;;;;;;38.33;16.42;;;;;;;14.82;59.99;100317.41;4473128;32;20096;-95
2022/10/31 01:53:01;;;;;;;36.53;16.27;;;;;;;14.74;59.99;100325.59;4473139;32;20087;-93
2022/10/31 01:55:29;;;;;;;39.28;16.33;;;;;;;14.80;59.99;100326.25;4473017;32;20227;-93
2022/10/31 01:57:57;;;;;;;38.38;15.07;;;;;;;14.94;60.00;100324.78;4473183;32;20116;-93
2022/10/31 02:00:22;;;;;;;38.30;15.75;;;;;;;14.86;59.99;100312.88;4473133;32;20181;-93
2022/10/31 02:02:48;;;;;;;30.67;15.18;;;;;;;15.07;60.00;100317.25;4473133;31;20093;-93
2022/10/31 02:05:22;;;;;;;35.22;15.10;;;;;;;15.12;60.01;100320.53;4472970;32;20465;-93
2022/10/31 02:08:04;;;;;;;33.92;14.55;;;;;;;15.13;60.01;100316.13;4473664;32;20132;-93
2022/10/31 02:10:31;;;;;;;33.08;14.52;;;;;;;15.03;60.00;100316.53;4486146;32;20115;-93
2022/10/31 02:12:57;;;;;;;45.80;16.83;;;;;;;14.84;59.99;100312.94;4473255;32;20143;-93
2022/10/31 02:15:22;;;;;;;36.63;15.75;;;;;;;14.70;59.98;100312.66;4472925;32;20421;-94
2022/10/31 02:17:48;;;;;;;37.40;15.05;;;;;;;14.82;59.99;100312.16;4473066;31;20108;-93
2022/10/31 02:20:18;;;;;;;35.20;15.55;;;;;;;14.77;59.98;100314.13;4472354;32;23751;-94
2022/10/31 02:23:21;;;;;;;37.67;15.20;;;;;;;14.84;59.99;100299.84;4473042;32;20137;-93
2022/10/31 02:25:56;;;;;;;59.15;14.80;;;;;;;14.90;59.99;100304.81;4486163;32;20164;-93
2022/10/31 02:28:33;;;;;;;43.25;13.68;;;;;;;14.84;59.99;100304.22;4473301;32;20100;-93
2022/10/31 02:31:17;;;;;;;30.30;13.27;;;;;;;15.12;60.01;100299.56;4486367;31;20064;-93
2022/10/31 02:34:03;;;;;;;27.17;12.45;;;;;;;15.13;60.01;100310.88;4473911;32;20101;-94
2022/10/31 02:36:38;;;;;;;34.75;12.90;;;;;;;14.89;59.99;100310.97;4473345;32;20143;-93
2022/10/31 02:39:13;;;;;;;24.15;12.70;;;;;;;14.92;60.00;100305.66;4486510;31;20101;-93
2022/10/31 02:41:46;;;;;;;28.35;12.93;;;;;;;14.82;59.99;100312.16;4486325;31;20483;-94
2022/10/31 02:44:17;;;;;;;27.75;11.70;;;;;;;14.98;60.00;100308.00;4485617;32;20078;-93
2022/10/31 02:46:49;;;;;;;24.30;10.98;;;;;;;14.95;60.00;100313.38;4485616;32;20093;-93
2022/10/31 02:49:34;;;;;;;23.73;10.55;;;;;;;14.84;59.99;100315.56;4472826;32;20147;-94
2022/10/31 02:52:00;;;;;;;38.78;11.32;;;;;;;14.79;59.98;100316.69;4487278;31;20808;-93
2022/10/31 02:54:26;;;;;;;24.30;11.12;;;;;;;14.66;59.98;100318.91;4472577;32;20392;-93
2022/10/31 02:56:58;;;;;;;31.35;11.68;;;;;;;14.59;59.98;100326.19;4472814;32;20104;-94
2022/10/31 02:59:24;;;;;;;38.60;11.70;;;;;;;14.84;59.99;100327.81;4473551;31;20116;-94
2022/10/31 03:02:26;;;;;;;23.85;11.27;;;;;;;14.64;59.98;100321.59;4474691;32;20100;-94
2022/10/31 03:04:55;;;;;;;23.55;11.07;;;;;;;14.69;59.98;100322.28;4474394;32;20151;-93
2022/10/31 03:07:46;;;;;;;23.17;10.55;;;;;;;14.61;59.98;100320.88;4485781;31;20165;-94
2022/10/31 03:10:36;;;;;;;24.33;10.32;;;;;;;14.84;59.99;100322.56;4485527;32;20104;-94
2022/10/31 03:13:04;;;;;;;21.42;9.85;;;;;;;14.76;59.98;100322.91;4473337;31;20084;-94
2022/10/31 03:15:31;;;;;;;23.15;10.07;;;;;;;14.74;59.99;100315.09;4485835;31;20106;-94
2022/10/31 03:18:00;;;;;;;22.48;9.75;;;;;;;14.92;59.99;100312.66;4472504;32;20131;-93
2022/10/31 03:20:34;;;;;;;20.05;9.88;;;;;;;14.85;59.99;100322.50;4472849;32;20195;-93
2022/10/31 03:22:59;;;;;;;20.92;9.25;;;;;;;14.74;59.99;100327.34;4473132;32;20148;-93
2022/10/31 03:25:25;;;;;;;20.12;9.75;;;;;;;14.67;59.99;100333.75;4471599;32;31248;-95
2022/10/31 03:27:50;;;;;;;20.37;9.60;;;;;;;14.61;59.98;100331.34;4472309;32;20092;-94
2022/10/31 03:30:16;;;;;;;19.58;10.65;;;;;;;14.67;59.98;100333.75;4472293;32;20441;-94
2022/10/31 03:32:48;;;;;;;26.83;10.23;;;;;;;14.58;59.98;100334.09;4472664;31;20115;-93
2022/10/31 03:35:15;;;;;;;24.45;10.45;;;;;;;14.64;59.98;100332.09;4472552;32;20471;-94
2022/10/31 03:37:40;;;;;;;18.90;9.38;;;;;;;14.52;59.97;100335.19;4472367;32;20104;-94
2022/10/31 03:40:06;;;;;;;21.42;10.52;;;;;;;14.53;59.98;100336.06;4471778;32;20503;-93
2022/10/31 03:42:33;;;;;;;22.50;9.98;;;;;;;14.44;59.97;100332.03;4459236;32;20159;-93
2022/10/31 03:45:10;;;;;;;26.83;10.73;;;;;;;14.53;59.97;100333.44;4473534;32;20120;-94
2022/10/31 03:47:35;;;;;;;28.35;9.77;;;;;;;14.55;59.98;100336.84;4487361;32;20708;-94
2022/10/31 03:50:01;;;;;;;22.42;11.35;;;;;;;14.57;59.98;100337.62;4474179;32;20113;-93
2022/10/31 03:52:37;;;;;;;29.98;11.02;;;;;;;14.44;59.97;100337.28;4473931;32;20148;-94
2022/10/31 03:55:25;;;;;;;33.35;11.30;;;;;;;14.45;59.97;100338.13;4487135;32;20441;-94
2022/10/31 03:58:13;;;;;;;25.17;11.43;;;;;;;14.35;59.97;100338.41;4489690;31;20108;-94
2022/10/31 04:00:40;;;;;;;34.97;12.63;;;;;;;14.35;59.97;100348.91;4475900;32;20124;-93
2022/10/31 04:03:14;;;;;;;32.35;12.18;;;;;;;14.29;59.96;100346.53;4474151;32;20092;-93
2022/10/31 04:05:39;;;;;;;20.35;11.07;;;;;;;14.32;59.96;100349.03;4474299;31;20096;-94
2022/10/31 04:08:07;;;;;;;21.42;10.48;;;;;;;14.54;59.97;100341.22;4473457;32;27062;-93
2022/10/31 04:10:33;;;;;;;22.98;10.25;;;;;;;14.54;59.97;100346.47;4474313;32;20104;-94
2022/10/31 04:13:06;;;;;;;21.58;10.13;;;;;;;14.48;59.97;100348.47;4473897;32;22634;-95
2022/10/31 04:15:31;;;;;;;36.42;10.52;;;;;;;14.55;59.97;100342.94;4474468;32;20511;-94
2022/10/31 04:17:58;;;;;;;20.40;9.70;;;;;;;14.41;59.96;100358.28;4473641;32;24796;-94
2022/10/31 04:20:37;;;;;;;23.30;9.57;;;;;;;14.49;59.98;100350.19;4474197;32;20469;-94
2022/10/31 04:23:03;;;;;;;21.05;9.30;;;;;;;14.41;59.97;100348.66;4474553;32;20092;-95
2022/10/31 04:25:28;;;;;;;19.90;10.07;;;;;;;14.57;59.98;100350.72;4476702;32;20394;-94
2022/10/31 04:27:54;;;;;;;18.42;9.07;;;;;;;14.61;59.98;100349.69;4474452;32;20143;-94
2022/10/31 04:30:19;;;;;;;23.87;10.13;;;;;;;14.71;59.98;100356.31;4473857;31;20100;-93
2022/10/31 04:32:45;;;;;;;19.55;9.40;;;;;;;14.59;59.98;100355.00;4473617;32;20436;-94
2022/10/31 04:35:10;;;;;;;21.45;8.73;;;;;;;14.49;59.97;100358.91;4473758;32;24245;-94
2022/10/31 04:37:35;;;;;;;19.17;8.50;;;;;;;14.42;59.97;100373.09;4473569;32;20132;-95
2022/10/31 04:40:01;;;;;;;17.15;8.75;;;;;;;14.54;59.97;100366.56;4473672;32;20152;-95
2022/10/31 04:42:29;;;;;;;18.87;9.70;;;;;;;14.54;59.97;100363.94;4473830;32;20124;-94
2022/10/31 04:44:54;;;;;;;20.50;9.35;;;;;;;14.51;59.97;100374.56;4473818;32;20448;-94
2022/10/31 04:47:20;;;;;;;17.33;8.30;;;;;;;14.33;59.96;100376.06;4473103;32;23784;-94
2022/10/31 04:49:45;;;;;;;17.58;9.00;;;;;;;14.46;59.97;100376.50;4473755;32;20140;-93
2022/10/31 04:52:10;;;;;;;18.33;9.15;;;;;;;14.40;59.96;100367.91;4473230;32;25457;-94
2022/10/31 04:54:36;;;;;;;19.87;8.95;;;;;;;14.14;59.96;100368.03;4473238;32;20108;-94
2022/10/31 04:57:01;;;;;;;19.17;8.50;;;;;;;14.21;59.96;100374.78;4473156;32;25011;-93
2022/10/31 04:59:27;;;;;;;22.80;9.15;;;;;;;14.37;59.96;100372.41;4473774;32;20437;-93
2022/10/31 05:01:52;;;;;;;17.00;8.77;;;;;;;14.45;59.97;100374.78;4473918;32;20092;-95
2022/10/31 05:04:17;;;;;;;19.80;9.95;;;;;;;14.54;59.97;100377.91;4473331;32;22898;-94
2022/10/31 05:06:43;;;;;;;26.17;9.15;;;;;;;14.40;59.96;100381.00;4473238;32;24347;-93
2022/10/31 05:09:08;;;;;;;18.45;9.48;;;;;;;14.23;59.96;100375.56;4473182;32;23050;-93
2022/10/31 05:11:34;;;;;;;20.37;9.15;;;;;;;14.57;59.98;100377.78;4473659;32;20112;-94
2022/10/31 05:13:59;;;;;;;22.95;10.68;;;;;;;14.29;59.96;100377.09;4486164;32;24497;-94
2022/10/31 05:16:25;;;;;;;22.02;9.80;;;;;;;14.38;59.96;100372.34;4472983;32;28803;-94
2022/10/31 05:18:50;;;;;;;20.62;9.35;;;;;;;14.36;59.96;100374.19;4473211;32;20143;-92
2022/10/31 05:21:15;;;;;;;20.73;10.05;;;;;;;14.39;59.97;100367.97;4473321;32;20148;-94
2022/10/31 05:23:41;;;;;;;21.70;10.15;;;;;;;14.55;59.97;100366.50;4472601;32;28687;-93
2022/10/31 05:26:06;;;;;;;20.23;9.57;;;;;;;14.54;59.97;100366.56;4486207;32;21627;-94
2022/10/31 05:28:32;;;;;;;20.88;10.40;;;;;;;14.70;59.98;100373.78;4473494;32;20488;-93
2022/10/31 05:30:57;;;;;;;20.77;9.85;;;;;;;14.47;59.97;100378.22;4459934;32;25782;-94
2022/10/31 05:33:22;;;;;;;21.20;10.10;;;;;;;14.65;59.98;100374.84;4473123;32;20258;-94
2022/10/31 05:35:48;;;;;;;23.70;11.75;;;;;;;14.57;59.98;100362.06;4473801;32;20150;-94
2022/10/31 05:38:13;;;;;;;23.35;10.00;;;;;;;14.38;59.96;100374.12;4473320;32;20104;-93
2022/10/31 05:40:39;;;;;;;22.30;9.65;;;;;;;14.43;59.97;100373.09;4472843;32;21078;-93
2022/10/31 05:43:04;;;;;;;26.08;10.25;;;;;;;14.43;59.96;100365.22;4486091;32;23857;-95
2022/10/31 05:45:29;;;;;;;22.73;10.27;;;;;;;14.42;59.97;100383.56;4473125;32;20127;-93
2022/10/31 05:47:56;;;;;;;28.05;11.02;;;;;;;14.54;59.97;100377.06;4474177;32;20131;-93
2022/10/31 05:50:22;;;;;;;28.40;11.48;;;;;;;14.41;59.98;100385.31;4474322;32;20806;-94
2022/10/31 05:52:47;;;;;;;24.98;11.27;;;;;;;14.53;59.97;100380.59;4473481;32;20117;-93
2022/10/31 05:55:13;;;;;;;28.12;11.77;;;;;;;14.59;59.98;100378.56;4473216;31;20122;-94
2022/10/31 05:57:38;;;;;;;25.50;12.00;;;;;;;14.58;59.98;100389.97;4473247;32;20139;-94
2022/10/31 06:00:04;;;;;;;30.42;12.45;;;;;;;14.52;59.97;100386.75;4473113;32;20104;-96
2022/10/31 06:02:34;;;;;;;27.13;13.38;;;;;;;14.76;59.98;100385.78;4473288;32;20095;-95
2022/10/31 06:04:59;;;;;;;27.60;12.37;;;;;;;14.59;59.98;100396.91;4474142;31;20502;-94
2022/10/31 06:07:25;;;;;;;28.20;12.02;;;;;;;14.62;59.97;100383.69;4472495;32;20108;-93
2022/10/31 06:09:50;;;;;;;37.40;12.10;;;;;;;14.58;59.98;100386.50;4472592;32;25172;-93
2022/10/31 06:12:16;;;;;;;35.60;12.57;;;;;;;14.48;59.97;100395.63;4472737;32;25473;-93
2022/10/31 06:14:41;;;;;;;30.65;13.20;;;;;;;14.56;59.98;100393.56;4472605;32;27850;-94
2022/10/31 06:17:06;;;;;;;34.47;13.30;;;;;;;14.71;59.99;100378.12;4473101;32;20413;-93
2022/10/31 06:19:32;;;;;;;38.25;12.48;;;;;;;14.64;59.98;100402.81;4472592;32;20922;-94
2022/10/31 06:21:57;;;;;;;29.70;13.57;;;;;;;14.60;59.98;100401.25;4472793;32;20108;-93
2022/10/31 06:24:23;;;;;;;32.58;13.93;;;;;;;14.64;59.98;100387.09;4472670;32;20131;-94
2022/10/31 06:26:48;;;;;;;33.72;13.30;;;;;;;14.72;59.99;100397.31;4473247;32;20128;-93
2022/10/31 06:29:13;;;;;;;39.25;13.60;;;;;;;14.87;60.00;100393.22;4472778;32;20127;-93
2022/10/31 06:31:39;;;;;;;37.97;12.07;;;;;;;14.98;60.00;100384.03;4472497;32;20503;-94
2022/10/31 06:34:04;;;;;;;27.35;12.45;;;;;;;14.92;60.00;100383.44;4472518;32;21177;-94
2022/10/31 06:36:29;;;;;;;31.52;13.35;;;;;;;14.72;59.97;100394.69;4474452;32;20131;-93
2022/10/31 06:38:55;;;;;;;45.88;13.50;;;;;;;14.88;59.99;100387.06;4472988;32;20441;-94
2022/10/31 06:41:20;;;;;;;38.20;12.85;;;;;;;14.62;59.97;100388.94;4472554;32;22903;-94
2022/10/31 06:43:47;;;;;;;37.28;13.10;;;;;;;14.68;59.98;100393.97;4472609;32;20121;-94
2022/10/31 06:46:12;;;;;;;44.13;13.93;;;;;;;14.49;59.98;100398.19;4473114;32;20225;-93
2022/10/31 06:48:37;;;;;;;32.35;13.48;;;;;;;14.58;59.98;100389.97;4472162;32;21532;-93
2022/10/31 06:51:03;;;;;;;33.45;15.02;;;;;;;14.64;59.98;100396.72;4472989;32;20136;-94
2022/10/31 06:53:29;;;;;;;36.25;14.90;;;;;;;14.55;59.97;100411.03;4472639;32;20096;-94
2022/10/31 06:55:56;;;;;;;33.72;14.13;;;;;;;14.52;59.98;100419.03;4473242;31;20100;-93
2022/10/31 06:58:21;;;;;;;34.67;13.88;;;;;;;14.78;59.98;100409.31;4486313;32;20152;-95
2022/10/31 07:00:47;;;;;;;33.63;13.93;;;;;;;14.87;59.99;100420.28;4459265;32;30400;-94
2022/10/31 07:03:13;;;;;;;36.30;13.23;;;;;;;14.62;59.98;100417.75;4473105;31;20177;-95
2022/10/31 07:05:38;;;;;;;31.25;13.30;;;;;;;14.86;59.99;100413.34;4472738;32;20148;-94
2022/10/31 07:08:08;;;;;;;29.52;13.25;;;;;;;14.84;59.99;100417.78;4472883;32;20088;-95
2022/10/31 07:10:34;;;;;;;25.30;11.85;;;;;;;14.63;59.97;100418.59;4473906;31;20104;-94
2022/10/31 07:13:01;;;;;;;28.83;12.05;;;;;;;14.89;60.00;100425.47;4474765;32;20068;-95
2022/10/31 07:15:28;;;;;;;25.52;12.35;;;;;;;14.81;59.99;100427.53;4460215;32;20060;-94
2022/10/31 07:17:53;;;;;;;29.17;11.85;;;;;;;14.65;59.98;100424.63;4472043;32;20104;-94
2022/10/31 07:20:18;;;;;;;32.00;12.82;;;;;;;14.78;59.98;100430.28;4471744;32;20131;-93
2022/10/31 07:22:44;;;;;;;29.92;12.95;;;;;;;14.84;59.99;100436.13;4472480;32;20131;-95
2022/10/31 07:25:09;;;;;;;30.83;12.75;;;;;;;14.87;60.00;100432.53;4472582;32;20419;-93
2022/10/31 07:27:39;;;;;;;27.62;13.35;;;;;;;14.98;60.00;100443.47;4472455;32;20156;-94
2022/10/31 07:30:05;;;;;;;33.50;12.53;;;;;;;14.94;59.99;100441.91;4472685;32;20516;-94
2022/10/31 07:32:38;;;;;;;28.15;12.95;;;;;;;14.90;59.99;100441.13;4472544;32;20112;-93
2022/10/31 07:35:04;;;;;;;33.42;13.60;;;;;;;14.85;59.99;100440.47;4472535;31;20112;-95
2022/10/31 07:37:29;;;;;;;29.30;13.57;;;;;;;14.69;59.98;100449.84;4472370;32;20161;-93
2022/10/31 07:39:54;;;;;;;36.10;14.35;;;;;;;14.73;59.99;100440.94;4471982;32;26086;-94
2022/10/31 07:42:20;;;;;;;32.58;13.13;;;;;;;14.86;59.99;100447.41;4472542;32;20132;-94
2022/10/31 07:44:45;;;;;;;35.08;13.65;;;;;;;14.83;59.99;100439.66;4472155;32;20128;-95
2022/10/31 07:47:11;;;;;;;41.03;14.40;;;;;;;14.81;59.99;100441.50;4471677;32;25102;-93
2022/10/31 07:49:36;;;;;;;33.90;13.55;;;;;;;14.86;59.99;100442.16;4472034;32;20104;-94
2022/10/31 07:52:01;;;;;;;33.05;13.45;;;;;;;14.87;60.00;100436.00;4471951;32;20213;-94
2022/10/31 07:54:27;;;;;;;32.45;13.93;;;;;;;15.20;60.01;100427.75;4471651;32;24040;-94
2022/10/31 07:56:52;;;;;;;35.70;14.85;;;;;;;15.32;60.01;100422.00;4471960;32;20136;-94
2022/10/31 07:59:17;;;;;;;28.87;13.38;;;;;;;15.23;60.01;100427.63;4472339;32;20410;-93
2022/10/31 08:01:43;;;;;;;28.58;12.15;;;;;;;15.31;60.03;100423.75;4471372;32;31425;-95
2022/10/31 08:04:08;;;;;;;29.85;12.75;;;;;;;15.45;60.02;100425.84;4485032;32;20120;-93
2022/10/31 08:06:34;;;;;;;30.55;12.40;;;;;;;15.44;60.02;100431.16;4471530;32;25967;-94
2022/10/31 08:08:59;;;;;;;30.05;13.23;;;;;;;15.49;60.03;100434.44;4471991;32;20156;-94
2022/10/31 08:11:24;;;;;;;31.75;12.70;;;;;;;15.53;60.02;100436.84;4471444;32;26458;-94
2022/10/31 08:13:50;;;;;;;26.27;12.63;;;;;;;15.50;60.03;100434.38;4471437;32;27041;-94
2022/10/31 08:16:15;;;;;;;30.55;12.07;;;;;;;15.41;60.02;100437.37;4471790;32;28928;-94
2022/10/31 08:18:41;;;;;;;32.08;12.68;;;;;;;15.47;60.02;100433.66;4471680;32;22544;-94
2022/10/31 08:21:06;;;;;;;26.77;12.23;;;;;;;15.51;60.02;100438.69;4472225;31;20112;-94
2022/10/31 08:23:32;;;;;;;32.00;13.20;;;;;;;15.35;60.02;100448.09;4471481;32;26190;-94
2022/10/31 08:25:57;;;;;;;33.40;13.52;;;;;;;15.67;60.04;100443.34;4471506;32;20139;-94
2022/10/31 08:28:22;;;;;;;33.55;13.70;;;;;;;15.68;60.03;100442.44;4471439;32;24938;-94
2022/10/31 08:30:48;;;;;;;30.40;12.98;;;;;;;15.52;60.02;100443.03;4472489;32;24403;-94
2022/10/31 08:33:15;;;;;;;33.25;12.98;;;;;;;15.65;60.03;100441.66;4474284;32;20144;-93
2022/10/31 08:35:40;;;;;;;34.25;14.13;;;;;;;15.63;60.04;100443.47;4475617;32;20513;-94
2022/10/31 08:38:07;;;;;;;33.03;13.23;;;;;;;15.70;60.04;100438.81;4460694;32;30551;-94
2022/10/31 08:40:33;;;;;;;37.40;13.40;;;;;;;15.54;60.02;100435.94;4474167;31;20173;-93
2022/10/31 08:43:03;;;;;;;30.25;12.60;;;;;;;15.53;60.02;100444.72;4473723;31;20148;-93
2022/10/31 08:45:29;;;;;;;26.73;12.43;;;;;;;15.72;60.04;100438.75;4474132;32;20208;-94
2022/10/31 08:48:04;;;;;;;26.70;12.77;;;;;;;15.80;60.04;100432.25;4473781;31;20160;-93
2022/10/31 08:50:30;;;;;;;28.50;12.80;;;;;;;15.51;60.02;100436.06;4474116;32;20727;-94
2022/10/31 08:53:07;;;;;;;31.30;14.32;;;;;;;15.84;60.04;100435.59;4474062;31;20126;-94
2022/10/31 08:55:35;;;;;;;30.37;12.02;;;;;;;15.84;60.04;100440.84;4474117;32;20159;-93
2022/10/31 08:58:01;;;;;;;32.80;13.82;;;;;;;15.85;60.04;100434.66;4473715;31;20100;-93
2022/10/31 09:00:27;;;;;;;29.85;13.32;;;;;;;16.05;60.05;100437.28;4473660;32;20131;-93
2022/10/31 09:02:59;;;;;;;30.48;13.60;;;;;;;16.13;60.06;100440.47;4473275;32;21997;-92
2022/10/31 09:05:24;;;;;;;28.73;12.07;;;;;;;16.12;60.06;100445.78;4473848;32;20476;-93
2022/10/31 09:07:49;;;;;;;35.50;14.55;;;;;;;16.05;60.05;100439.06;4473573;32;20132;-92
2022/10/31 09:10:15;;;;;;;30.10;13.25;;;;;;;16.07;60.05;100443.34;4473509;32;21408;-94
2022/10/31 09:12:41;;;;;;;32.72;13.95;;;;;;;16.13;60.06;100444.88;4473493;32;20093;-93
2022/10/31 09:15:07;;;;;;;28.90;12.55;;;;;;;16.34;60.07;100449.19;4473728;31;20164;-93
2022/10/31 09:17:32;;;;;;;33.92;13.43;;;;;;;16.23;60.05;100448.78;4473391;32;20115;-93
2022/10/31 09:19:58;;;;;;;31.87;13.93;;;;;;;16.09;60.06;100449.41;4472725;32;32350;-93
2022/10/31 09:22:23;;;;;;;29.95;13.30;;;;;;;16.25;60.07;100450.41;4485552;32;33641;-93
2022/10/31 09:24:48;;;;;;;26.67;12.18;;;;;;;16.10;60.06;100453.72;4473107;32;20158;-93
2022/10/31 09:27:14;;;;;;;28.30;12.20;;;;;;;16.13;60.06;100448.34;4472859;32;22942;-93
2022/10/31 09:29:39;;;;;;;43.58;18.58;;;;;;;16.15;60.06;100456.16;4472940;32;23108;-93
2022/10/31 09:32:05;;;;;;;33.33;14.30;;;;;;;16.10;60.06;100452.88;4473390;32;20119;-92
2022/10/31 09:34:30;;;;;;;24.08;12.15;;;;;;;15.88;60.05;100455.56;4473530;32;20134;-93
2022/10/31 09:36:56;;;;;;;27.90;12.27;;;;;;;15.97;60.05;100452.53;4473305;32;20135;-94
2022/10/31 09:39:21;;;;;;;31.30;12.95;;;;;;;15.98;60.04;100454.25;4473449;32;20104;-92
2022/10/31 09:42:02;;;;;;;29.90;12.90;;;;;;;16.14;60.05;100455.31;4472015;32;21459;-92
2022/10/31 09:44:42;;;;;;;30.85;12.10;;;;;;;16.08;60.05;100449.44;4474635;31;20160;-94
2022/10/31 09:47:29;;;;;;;25.10;11.25;;;;;;;16.34;60.07;100451.81;4473698;32;20739;-93
2022/10/31 09:50:13;;;;;;;26.17;12.43;;;;;;;16.25;60.07;100458.28;4487301;31;20100;-93
2022/10/31 09:52:40;;;;;;;29.52;11.77;;;;;;;16.31;60.06;100453.69;4473641;31;20091;-93
2022/10/31 09:55:10;;;;;;;28.23;11.52;;;;;;;16.21;60.06;100455.88;4473793;31;20792;-92
2022/10/31 09:57:36;;;;;;;33.42;14.02;;;;;;;16.21;60.06;100455.88;4491993;32;20076;-93
2022/10/31 10:00:04;;;;;;;25.98;12.45;;;;;;;16.19;60.07;100453.31;4487890;32;20135;-93
2022/10/31 10:02:47;;;;;;;30.92;12.13;;;;;;;16.42;60.07;100451.44;4473381;31;20196;-94
2022/10/31 10:05:14;;;;;;;31.65;12.40;;;;;;;16.42;60.07;100446.19;4473504;31;20092;-93
2022/10/31 10:07:46;;;;;;;33.50;11.98;;;;;;;16.45;60.07;100444.28;4473177;32;20168;-95
2022/10/31 10:10:17;;;;;;;27.52;12.98;;;;;;;16.43;60.07;100447.91;4486115;32;20156;-92
2022/10/31 10:13:01;;;;;;;33.28;13.73;;;;;;;16.47;60.09;100441.56;4486132;32;20117;-93
2022/10/31 10:15:35;;;;;;;25.00;11.82;;;;;;;16.69;60.08;100444.13;4487333;31;20465;-93
2022/10/31 10:18:07;;;;;;;26.85;11.55;;;;;;;16.70;60.09;100444.03;4486141;32;20087;-93
2022/10/31 10:20:54;;;;;;;29.12;12.85;;;;;;;16.50;60.08;100444.06;4486060;32;20108;-93
2022/10/31 10:23:51;;;;;;;30.27;11.63;;;;;;;16.42;60.07;100452.31;4486053;32;20515;-93
2022/10/31 10:26:21;;;;;;;32.10;14.40;;;;;;;16.47;60.08;100444.19;4486174;32;20893;-93
2022/10/31 10:28:54;;;;;;;28.90;12.57;;;;;;;16.45;60.07;100439.03;4473423;32;20104;-93
2022/10/31 10:31:21;;;;;;;23.35;11.38;;;;;;;16.28;60.06;100447.66;4473282;31;20099;-93
2022/10/31 10:34:08;;;;;;;26.00;11.40;;;;;;;16.33;60.07;100436.97;4473227;32;20131;-93
2022/10/31 10:36:41;;;;;;;23.17;10.90;;;;;;;16.26;60.07;100440.75;4473248;32;20089;-93
2022/10/31 10:39:16;;;;;;;22.42;10.93;;;;;;;16.45;60.08;100440.78;4473797;32;20503;-93
2022/10/31 10:41:44;;;;;;;25.25;11.88;;;;;;;16.58;60.08;100427.03;4485832;32;20131;-94
2022/10/31 10:44:10;;;;;;;26.77;12.90;;;;;;;16.64;60.09;100441.66;4472791;32;20127;-93
2022/10/31 10:49:44;;;;;;;28.25;12.37;;;;;;;16.32;60.07;100437.00;4475127;32;20103;-93
2022/10/31 10:52:37;;;;;;;25.17;12.50;;;;;;;16.54;60.07;100428.06;4474142;31;20108;-93
2022/10/31 10:55:09;;;;;;;23.55;11.45;;;;;;;16.15;60.06;100432.50;4486175;32;20824;-94
2022/10/31 10:57:56;;;;;;;25.90;11.05;;;;;;;16.29;60.07;100435.38;4486003;32;20088;-93
2022/10/31 11:00:27;;;;;;;23.58;11.93;;;;;;;16.22;60.06;100434.78;4485775;32;20198;-94
2022/10/31 11:02:52;;;;;;;26.67;11.85;;;;;;;16.52;60.08;100432.56;4473215;31;20449;-95
2022/10/31 11:05:26;;;;;;;26.60;11.95;;;;;;;16.54;60.07;100432.47;4472632;32;20095;-93
2022/10/31 11:07:51;;;;;;;28.62;11.52;;;;;;;16.60;60.08;100426.97;4486533;31;20084;-94
2022/10/31 11:10:17;;;;;;;26.58;12.05;;;;;;;16.58;60.08;100424.41;4473048;32;20186;-94
2022/10/31 11:12:44;;;;;;;27.62;11.93;;;;;;;16.37;60.07;100430.63;4472354;32;20130;-94
2022/10/31 11:15:21;;;;;;;22.35;11.32;;;;;;;16.28;60.06;100431.88;4472852;32;20134;-93
2022/10/31 11:17:49;;;;;;;31.42;12.70;;;;;;;16.43;60.07;100425.09;4472877;32;20088;-93